createdAt,value
2022-08-21T00:02:22.991Z,89.13
2022-08-21T00:04:57.344Z,93.80
2022-08-21T00:07:26.483Z,92.90
2022-08-21T00:09:56.291Z,91.87
2022-08-21T00:12:24.628Z,96.50
2022-08-21T00:14:56.979Z,92.83
2022-08-21T00:17:25.448Z,91.00
2022-08-21T00:19:53.702Z,90.87
2022-08-21T00:22:21.942Z,93.17
2022-08-21T00:24:50.627Z,95.93
2022-08-21T00:27:20.224Z,91.27
2022-08-21T00:29:48.455Z,93.43
2022-08-21T00:32:21.986Z,89.30
2022-08-21T00:34:50.224Z,92.37
2022-08-21T00:37:18.538Z,97.03
2022-08-21T00:39:48.171Z,91.30
2022-08-21T00:42:16.916Z,88.57
2022-08-21T00:44:47.299Z,97.90
2022-08-21T00:47:15.603Z,91.53
2022-08-21T00:49:43.861Z,99.80
2022-08-21T00:52:13.775Z,92.73
2022-08-21T00:54:45.851Z,96.37
2022-08-21T00:57:17.952Z,98.47
2022-08-21T00:59:48.926Z,101.93
2022-08-21T01:02:17.231Z,90.17
2022-08-21T01:04:45.892Z,85.73
2022-08-21T01:07:14.629Z,93.60
2022-08-21T01:09:43.221Z,89.40
2022-08-21T01:12:11.838Z,89.20
2022-08-21T01:14:40.558Z,90.90
2022-08-21T01:17:10.687Z,98.60
2022-08-21T01:19:38.932Z,96.60
2022-08-21T01:22:08.673Z,92.67
2022-08-21T01:24:36.913Z,94.60
2022-08-21T01:27:05.190Z,92.03
2022-08-21T01:29:35.724Z,96.17
2022-08-21T01:32:07.418Z,106.33
2022-08-21T01:34:36.261Z,91.40
2022-08-21T01:37:05.477Z,90.43
2022-08-21T01:39:35.485Z,93.27
2022-08-21T01:42:03.730Z,96.50
2022-08-21T01:44:32.173Z,89.97
2022-08-21T01:47:01.454Z,92.37
2022-08-21T01:49:29.997Z,94.73
2022-08-21T01:51:58.305Z,97.07
2022-08-21T01:54:26.549Z,93.90
2022-08-21T01:56:56.377Z,92.63
2022-08-21T01:59:24.994Z,91.90
2022-08-21T02:01:54.978Z,96.60
2022-08-21T02:04:23.287Z,94.33
2022-08-21T02:06:52.061Z,90.67
2022-08-21T02:09:20.543Z,86.60
2022-08-21T02:11:48.783Z,90.93
2022-08-21T02:14:27.196Z,94.37
2022-08-21T02:17:09.580Z,91.20
2022-08-21T02:19:40.380Z,91.53
2022-08-21T02:22:09.135Z,89.97
2022-08-21T02:24:38.522Z,95.80
2022-08-21T02:27:25.967Z,100.43
2022-08-21T02:29:56.338Z,91.57
2022-08-21T02:32:24.652Z,97.70
2022-08-21T02:34:53.284Z,93.60
2022-08-21T02:37:21.781Z,93.33
2022-08-21T02:39:50.647Z,89.20
2022-08-21T02:42:19.118Z,89.67
2022-08-21T02:44:47.385Z,92.13
2022-08-21T02:47:17.805Z,92.17
2022-08-21T02:49:46.055Z,88.37
2022-08-21T02:52:15.347Z,85.67
2022-08-21T02:54:43.530Z,90.07
2022-08-21T02:57:11.775Z,90.43
2022-08-21T02:59:40.192Z,91.90
2022-08-21T03:02:08.461Z,94.33
2022-08-21T03:04:38.072Z,89.40
2022-08-21T03:07:06.609Z,93.77
2022-08-21T03:09:39.439Z,92.40
2022-08-21T03:12:19.085Z,91.87
2022-08-21T03:14:47.346Z,91.73
2022-08-21T03:17:15.581Z,92.57
2022-08-21T03:19:45.248Z,90.03
2022-08-21T03:22:13.495Z,91.83
2022-08-21T03:24:44.177Z,94.33
2022-08-21T03:27:13.412Z,91.33
2022-08-21T03:29:42.475Z,95.73
2022-08-21T03:32:11.103Z,96.23
2022-08-21T03:34:39.555Z,97.27
2022-08-21T03:37:09.886Z,92.90
2022-08-21T03:39:38.162Z,90.40
2022-08-21T03:42:07.216Z,96.10
2022-08-21T03:44:35.602Z,94.77
2022-08-21T03:47:03.890Z,99.63
2022-08-21T03:49:32.529Z,93.43
2022-08-21T03:52:00.757Z,94.77
2022-08-21T03:54:30.391Z,93.90
2022-08-21T03:56:58.760Z,96.30
2022-08-21T03:59:27.158Z,91.50
2022-08-21T04:01:56.037Z,97.53
2022-08-21T04:04:24.339Z,99.80
2022-08-21T04:06:52.635Z,91.37
2022-08-21T04:09:21.247Z,94.07
2022-08-21T04:11:51.030Z,95.13
2022-08-21T04:14:19.616Z,93.10
2022-08-21T04:16:47.954Z,92.03
2022-08-21T04:19:16.604Z,93.67
2022-08-21T04:21:45.025Z,91.90
2022-08-21T04:24:14.455Z,95.40
2022-08-21T04:26:42.916Z,91.57
2022-08-21T04:29:12.510Z,91.63
2022-08-21T04:31:40.779Z,94.40
2022-08-21T04:34:09.275Z,113.90
2022-08-21T04:36:37.538Z,93.30
2022-08-21T04:39:05.901Z,94.50
2022-08-21T04:41:38.664Z,92.93
2022-08-21T04:44:07.595Z,93.87
2022-08-21T04:46:37.555Z,91.40
2022-08-21T04:49:06.123Z,92.27
2022-08-21T04:51:35.554Z,90.37
2022-08-21T04:54:05.592Z,97.73
2022-08-21T04:56:35.684Z,97.40
2022-08-21T04:59:05.809Z,94.87
2022-08-21T05:01:36.689Z,92.43
2022-08-21T05:04:07.266Z,103.00
2022-08-21T05:06:37.887Z,96.00
2022-08-21T05:09:06.682Z,95.27
2022-08-21T05:11:35.941Z,91.47
2022-08-21T05:14:04.333Z,105.77
2022-08-21T05:16:37.000Z,92.80
2022-08-21T05:19:07.599Z,100.57
2022-08-21T05:21:35.919Z,101.03
2022-08-21T05:24:04.333Z,106.07
2022-08-21T05:26:32.509Z,97.33
2022-08-21T05:29:00.794Z,95.90
2022-08-21T05:31:30.442Z,96.97
2022-08-21T05:33:58.786Z,93.37
2022-08-21T05:36:28.346Z,92.90
2022-08-21T05:38:56.576Z,90.13
2022-08-21T05:41:24.830Z,95.70
2022-08-21T05:43:53.089Z,96.20
2022-08-21T05:46:21.378Z,92.03
2022-08-21T05:48:49.730Z,95.20
2022-08-21T05:51:18.600Z,85.50
2022-08-21T05:53:48.426Z,90.23
2022-08-21T05:56:17.081Z,95.17
2022-08-21T05:58:45.381Z,97.77
2022-08-21T06:01:14.625Z,89.90
2022-08-21T06:03:43.692Z,90.37
2022-08-21T06:06:12.221Z,97.37
2022-08-21T06:08:40.441Z,96.30
2022-08-21T06:11:10.157Z,91.00
2022-08-21T06:13:39.878Z,96.53
2022-08-21T06:16:09.583Z,98.03
2022-08-21T06:18:38.454Z,88.30
2022-08-21T06:21:07.153Z,95.37
2022-08-21T06:23:36.128Z,94.10
2022-08-21T06:26:05.614Z,91.93
2022-08-21T06:28:35.679Z,94.20
2022-08-21T06:31:04.251Z,90.70
2022-08-21T06:33:32.940Z,91.90
2022-08-21T06:36:01.574Z,93.37
2022-08-21T06:38:29.843Z,97.97
2022-08-21T06:40:59.862Z,92.97
2022-08-21T06:43:32.790Z,92.80
2022-08-21T06:46:10.267Z,96.17
2022-08-21T06:48:38.452Z,96.00
2022-08-21T06:51:07.210Z,94.70
2022-08-21T06:53:35.557Z,92.13
2022-08-21T06:56:03.900Z,95.83
2022-08-21T06:58:32.374Z,95.50
2022-08-21T07:01:01.438Z,96.83
2022-08-21T07:03:33.507Z,95.73
2022-08-21T07:06:01.716Z,100.53
2022-08-21T07:08:30.690Z,95.33
2022-08-21T07:11:00.389Z,90.67
2022-08-21T07:13:28.872Z,95.33
2022-08-21T07:16:01.598Z,94.30
2022-08-21T07:18:33.330Z,95.83
2022-08-21T07:21:04.297Z,93.23
2022-08-21T07:23:33.836Z,90.90
2022-08-21T07:26:02.401Z,90.30
2022-08-21T07:28:31.069Z,95.60
2022-08-21T07:31:00.542Z,89.50
2022-08-21T07:33:29.575Z,94.70
2022-08-21T07:36:06.641Z,98.20
2022-08-21T07:38:34.886Z,97.67
2022-08-21T07:41:03.484Z,93.33
2022-08-21T07:43:32.155Z,98.90
2022-08-21T07:46:00.545Z,96.23
2022-08-21T07:48:28.744Z,90.60
2022-08-21T07:50:57.275Z,98.63
2022-08-21T07:53:26.800Z,96.73
2022-08-21T07:55:55.042Z,92.67
2022-08-21T07:58:23.249Z,100.20
2022-08-21T08:00:51.525Z,99.40
2022-08-21T08:03:20.500Z,97.83
2022-08-21T08:05:57.554Z,93.40
2022-08-21T08:08:27.165Z,97.57
2022-08-21T08:10:56.034Z,94.37
2022-08-21T08:13:24.293Z,94.80
2022-08-21T08:15:52.476Z,95.93
2022-08-21T08:18:20.700Z,96.90
2022-08-21T08:20:48.934Z,93.53
2022-08-21T08:23:17.351Z,101.27
2022-08-21T08:25:47.488Z,94.80
2022-08-21T08:28:16.651Z,93.37
2022-08-21T08:30:45.681Z,99.27
2022-08-21T08:33:14.003Z,95.17
2022-08-21T08:35:42.358Z,92.87
2022-08-21T08:38:10.901Z,97.47
2022-08-21T08:40:43.090Z,94.83
2022-08-21T08:43:14.516Z,101.00
2022-08-21T08:45:47.664Z,97.17
2022-08-21T08:48:17.526Z,98.57
2022-08-21T08:50:49.380Z,97.97
2022-08-21T08:53:20.909Z,98.80
2022-08-21T08:55:50.763Z,106.27
2022-08-21T08:58:22.650Z,99.50
2022-08-21T09:00:52.512Z,95.83
2022-08-21T09:03:21.293Z,94.47
2022-08-21T09:05:50.614Z,93.40
2022-08-21T09:08:26.631Z,98.73
2022-08-21T09:11:00.327Z,99.30
2022-08-21T09:13:38.641Z,94.67
2022-08-21T09:16:12.925Z,95.83
2022-08-21T09:18:46.552Z,97.67
2022-08-21T09:21:18.872Z,96.03
2022-08-21T09:23:52.411Z,94.10
2022-08-21T09:26:22.136Z,91.43
2022-08-21T09:28:54.199Z,92.97
2022-08-21T09:31:25.558Z,94.97
2022-08-21T09:33:59.958Z,90.37
2022-08-21T09:36:36.026Z,93.70
2022-08-21T09:39:04.294Z,99.77
2022-08-21T09:41:34.683Z,95.73
2022-08-21T09:44:05.109Z,102.03
2022-08-21T09:46:33.436Z,96.10
2022-08-21T09:49:03.351Z,119.67
2022-08-21T09:51:35.078Z,94.40
2022-08-21T09:54:15.005Z,100.53
2022-08-21T09:57:14.269Z,93.77
2022-08-21T09:59:44.921Z,92.00
2022-08-21T10:02:24.222Z,97.57
2022-08-21T10:04:53.385Z,92.30
2022-08-21T10:07:23.035Z,100.67
2022-08-21T10:10:00.593Z,94.00
2022-08-21T10:12:33.289Z,100.23
2022-08-21T10:15:08.608Z,98.63
2022-08-21T10:17:44.357Z,99.87
2022-08-21T10:20:14.759Z,95.40
2022-08-21T10:22:48.153Z,93.43
2022-08-21T10:25:20.679Z,98.07
2022-08-21T10:27:56.023Z,94.97
2022-08-21T10:30:30.905Z,99.43
2022-08-21T10:33:05.303Z,95.57
2022-08-21T10:35:35.962Z,98.57
2022-08-21T10:38:28.155Z,100.00
2022-08-21T10:41:05.514Z,96.53
2022-08-21T10:43:38.164Z,96.07
2022-08-21T10:46:13.356Z,99.83
2022-08-21T10:48:45.769Z,100.03
2022-08-21T10:51:18.161Z,100.00
2022-08-21T10:53:53.658Z,105.13
2022-08-21T10:56:24.491Z,98.37
2022-08-21T10:59:01.739Z,99.23
2022-08-21T11:01:33.975Z,100.53
2022-08-21T11:04:10.343Z,98.80
2022-08-21T11:06:39.810Z,97.50
2022-08-21T11:09:13.194Z,99.30
2022-08-21T11:11:50.149Z,94.80
2022-08-21T11:14:33.649Z,94.50
2022-08-21T11:17:04.674Z,95.83
2022-08-21T11:19:35.333Z,95.93
2022-08-21T11:22:09.743Z,95.10
2022-08-21T11:24:41.164Z,95.50
2022-08-21T11:27:16.022Z,95.43
2022-08-21T11:29:46.494Z,95.13
2022-08-21T11:32:32.197Z,101.07
2022-08-21T11:35:05.933Z,104.50
2022-08-21T11:37:43.338Z,104.60
2022-08-21T11:40:15.314Z,93.23
2022-08-21T11:42:46.377Z,99.70
2022-08-21T11:45:21.451Z,96.87
2022-08-21T11:48:06.070Z,96.20
2022-08-21T11:50:38.385Z,104.30
2022-08-21T11:53:11.330Z,104.00
2022-08-21T11:55:42.283Z,103.10
2022-08-21T11:58:13.260Z,95.23
2022-08-21T12:00:45.134Z,97.93
2022-08-21T12:03:14.642Z,100.10
2022-08-21T12:05:45.279Z,93.60
2022-08-21T12:08:16.373Z,94.80
2022-08-21T12:10:48.833Z,98.13
2022-08-21T12:13:35.702Z,97.30
2022-08-21T12:16:10.202Z,96.30
2022-08-21T12:18:38.931Z,101.10
2022-08-21T12:21:20.663Z,102.50
2022-08-21T12:23:50.392Z,98.40
2022-08-21T12:26:23.306Z,100.07
2022-08-21T12:28:51.726Z,104.40
2022-08-21T12:31:23.647Z,98.47
2022-08-21T12:33:57.410Z,102.53
2022-08-21T12:36:35.814Z,100.40
2022-08-21T12:39:13.245Z,99.90
2022-08-21T12:41:48.526Z,103.53
2022-08-21T12:44:17.397Z,106.93
2022-08-21T12:46:48.879Z,102.03
2022-08-21T12:49:18.173Z,99.47
2022-08-21T12:54:48.446Z,104.07
2022-08-21T12:57:24.307Z,100.33
2022-08-21T12:59:55.364Z,105.47
2022-08-21T13:02:25.910Z,100.43
2022-08-21T13:04:56.400Z,98.60
2022-08-21T13:07:28.469Z,97.40
2022-08-21T13:09:59.091Z,105.07
2022-08-21T13:12:29.529Z,100.77
2022-08-21T13:15:02.308Z,106.77
2022-08-21T13:17:33.724Z,108.67
2022-08-21T13:20:03.083Z,101.43
2022-08-21T13:22:33.865Z,106.37
2022-08-21T13:25:07.192Z,112.17
2022-08-21T13:27:36.061Z,105.47
2022-08-21T13:30:07.596Z,98.83
2022-08-21T13:32:38.631Z,98.37
2022-08-21T13:35:18.506Z,104.77
2022-08-21T13:37:49.770Z,97.87
2022-08-21T13:40:19.631Z,103.80
2022-08-21T13:42:49.291Z,97.17
2022-08-21T13:45:19.181Z,100.93
2022-08-21T13:47:48.618Z,107.73
2022-08-21T13:50:18.361Z,101.77
2022-08-21T13:52:52.827Z,97.63
2022-08-21T13:55:21.098Z,96.23
2022-08-21T13:57:49.516Z,100.37
2022-08-21T14:00:19.689Z,105.70
2022-08-21T14:02:49.292Z,104.80
2022-08-21T14:05:19.129Z,103.07
2022-08-21T14:07:48.015Z,102.93
2022-08-21T14:10:20.391Z,104.53
2022-08-21T14:12:50.706Z,110.97
2022-08-21T14:15:20.089Z,96.83
2022-08-21T14:17:48.394Z,104.57
2022-08-21T14:20:29.183Z,101.10
2022-08-21T14:22:57.582Z,97.67
2022-08-21T14:25:43.802Z,103.67
2022-08-21T14:28:21.674Z,102.13
2022-08-21T14:30:55.947Z,104.20
2022-08-21T14:33:27.480Z,104.10
2022-08-21T14:35:55.861Z,103.40
2022-08-21T14:38:25.582Z,107.50
2022-08-21T14:40:56.634Z,101.53
2022-08-21T14:43:25.231Z,109.80
2022-08-21T14:45:55.772Z,102.43
2022-08-21T14:48:23.972Z,100.63
2022-08-21T14:51:00.194Z,102.07
2022-08-21T14:53:29.096Z,101.07
2022-08-21T14:56:07.987Z,105.87
2022-08-21T14:58:38.138Z,109.60
2022-08-21T15:01:07.651Z,102.97
2022-08-21T15:14:18.032Z,122.03
2022-08-21T15:16:46.440Z,114.97
2022-08-21T15:19:14.763Z,112.10
2022-08-21T15:21:43.089Z,116.83
2022-08-21T15:24:12.675Z,116.07
2022-08-21T15:26:40.890Z,114.17
2022-08-21T15:29:10.828Z,109.83
2022-08-21T15:31:51.994Z,111.27
2022-08-21T15:34:20.251Z,105.77
2022-08-21T15:36:51.294Z,105.67
2022-08-21T15:39:24.793Z,105.33
2022-08-21T15:41:53.294Z,111.73
2022-08-21T15:44:21.663Z,108.67
2022-08-21T15:46:51.301Z,106.73
2022-08-21T15:49:19.536Z,103.63
2022-08-21T15:51:49.973Z,112.57
2022-08-21T15:54:18.173Z,106.83
2022-08-21T15:56:48.645Z,107.80
2022-08-21T15:59:19.614Z,102.87
2022-08-21T16:01:48.618Z,103.70
2022-08-21T16:04:22.431Z,100.50
2022-08-21T16:06:54.170Z,104.63
2022-08-21T16:09:24.164Z,112.67
2022-08-21T16:11:52.757Z,110.30
2022-08-21T16:14:21.109Z,105.57
2022-08-21T16:16:49.368Z,105.37
2022-08-21T16:19:19.341Z,105.20
2022-08-21T16:21:48.621Z,105.20
2022-08-21T16:24:16.839Z,108.53
2022-08-21T16:26:47.119Z,115.63
2022-08-21T16:29:26.588Z,109.77
2022-08-21T16:31:55.462Z,101.60
2022-08-21T16:34:25.081Z,100.10
2022-08-21T16:36:53.301Z,104.50
2022-08-21T16:39:21.786Z,106.80
2022-08-21T16:41:50.827Z,109.87
2022-08-21T16:44:19.336Z,106.87
2022-08-21T16:46:47.883Z,101.40
2022-08-21T16:49:18.117Z,102.03
2022-08-21T16:51:48.796Z,103.87
2022-08-21T16:54:19.252Z,104.90
2022-08-21T16:56:48.092Z,104.30
2022-08-21T16:59:17.595Z,104.47
2022-08-21T17:01:46.429Z,106.93
2022-08-21T17:04:14.918Z,102.70
2022-08-21T17:06:43.963Z,105.43
2022-08-21T17:09:13.634Z,106.53
2022-08-21T17:11:43.904Z,101.93
2022-08-21T17:14:13.889Z,105.63
2022-08-21T17:16:43.119Z,105.80
2022-08-21T17:19:13.013Z,106.67
2022-08-21T17:21:41.273Z,108.20
2022-08-21T17:24:09.689Z,104.37
2022-08-21T17:26:39.640Z,103.90
2022-08-21T17:29:09.985Z,102.47
2022-08-21T17:31:39.493Z,107.03
2022-08-21T17:34:07.895Z,100.30
2022-08-21T17:36:36.190Z,108.90
2022-08-21T17:39:06.034Z,103.43
2022-08-21T17:41:34.645Z,101.80
2022-08-21T17:44:06.260Z,103.40
2022-08-21T17:46:37.048Z,100.00
2022-08-21T17:49:06.014Z,100.93
2022-08-21T17:51:35.789Z,103.77
2022-08-21T17:54:04.060Z,102.67
2022-08-21T17:56:33.978Z,107.90
2022-08-21T17:59:02.853Z,101.40
2022-08-21T18:01:34.441Z,97.17
2022-08-21T18:04:02.971Z,100.20
2022-08-21T18:06:31.182Z,102.93
2022-08-21T18:08:59.420Z,99.30
2022-08-21T18:11:29.042Z,97.17
2022-08-21T18:14:03.874Z,95.97
2022-08-21T18:16:37.657Z,98.60
2022-08-21T18:19:07.932Z,99.30
2022-08-21T18:21:36.270Z,103.57
2022-08-21T18:24:04.711Z,93.23
2022-08-21T18:26:34.712Z,98.40
2022-08-21T18:29:02.975Z,106.50
2022-08-21T18:31:32.131Z,106.03
2022-08-21T18:34:11.807Z,99.13
2022-08-21T18:36:40.295Z,96.73
2022-08-21T18:39:35.088Z,91.53
2022-08-21T18:41:58.026Z,95.33
2022-08-21T18:44:28.904Z,97.30
2022-08-21T18:46:59.183Z,95.47
2022-08-21T18:49:28.866Z,93.70
2022-08-21T18:51:57.921Z,91.73
2022-08-21T18:54:26.460Z,94.33
2022-08-21T18:56:55.295Z,97.50
2022-08-21T18:59:23.839Z,90.67
2022-08-21T19:01:53.132Z,91.37
2022-08-21T19:04:43.068Z,95.17
2022-08-21T19:07:13.461Z,95.63
2022-08-21T19:09:42.554Z,90.63
2022-08-21T19:12:14.660Z,96.97
2022-08-21T19:14:43.410Z,99.40
2022-08-21T19:17:11.663Z,96.90
2022-08-21T19:19:39.921Z,92.27
2022-08-21T19:22:11.096Z,92.23
2022-08-21T19:24:49.865Z,98.23
2022-08-21T19:27:19.065Z,93.03
2022-08-21T19:29:47.295Z,90.37
2022-08-21T19:32:15.575Z,89.50
2022-08-21T19:34:46.364Z,91.07
2022-08-21T19:37:16.235Z,94.37
2022-08-21T19:39:48.807Z,91.20
2022-08-21T19:42:36.442Z,95.07
2022-08-21T19:45:05.094Z,93.97
2022-08-21T19:47:33.948Z,96.90
2022-08-21T19:52:58.664Z,95.50
2022-08-21T19:55:28.385Z,90.57
2022-08-21T19:57:56.891Z,96.37
2022-08-21T20:00:25.399Z,97.57
2022-08-21T20:02:53.710Z,101.07
2022-08-21T20:05:22.163Z,93.27
2022-08-21T20:07:50.629Z,92.40
2022-08-21T20:10:19.073Z,89.97
2022-08-21T20:12:51.484Z,92.20
2022-08-21T20:15:21.871Z,92.53
2022-08-21T20:17:51.003Z,97.33
2022-08-21T20:20:19.462Z,94.43
2022-08-21T20:22:47.637Z,91.23
2022-08-21T20:25:16.636Z,92.70
2022-08-21T20:27:50.962Z,88.77
2022-08-21T20:30:22.923Z,92.70
2022-08-21T20:32:51.225Z,92.97
2022-08-21T20:35:19.795Z,89.00
2022-08-21T20:37:58.852Z,88.20
2022-08-21T20:40:39.899Z,93.27
2022-08-21T20:43:14.253Z,90.30
2022-08-21T20:45:42.620Z,88.53
2022-08-21T20:48:13.405Z,91.80
2022-08-21T20:50:43.787Z,93.63
2022-08-21T20:53:15.292Z,94.00
2022-08-21T20:55:44.930Z,92.67
2022-08-21T20:58:17.369Z,90.77
2022-08-21T21:00:47.453Z,93.07
2022-08-21T21:03:21.296Z,89.67
2022-08-21T21:06:01.415Z,91.27
2022-08-21T21:08:31.377Z,91.07
2022-08-21T21:11:01.722Z,86.63
2022-08-21T21:13:32.757Z,88.67
2022-08-21T21:16:04.054Z,89.27
2022-08-21T21:18:35.412Z,93.27
2022-08-21T21:21:08.314Z,88.83
2022-08-21T21:23:40.568Z,88.90
2022-08-21T21:29:04.348Z,88.17
2022-08-21T21:31:38.848Z,91.43
2022-08-21T21:34:07.354Z,93.23
2022-08-21T21:36:51.455Z,93.77
2022-08-21T21:39:35.986Z,93.60
2022-08-21T21:42:07.934Z,92.90
2022-08-21T21:44:44.010Z,88.93
2022-08-21T21:47:25.870Z,90.00
2022-08-21T21:50:00.139Z,93.77
2022-08-21T21:52:37.855Z,94.70
2022-08-21T21:55:18.294Z,94.47
2022-08-21T21:58:10.525Z,92.23
2022-08-21T22:00:52.435Z,94.80
2022-08-21T22:03:23.461Z,94.80
2022-08-21T22:05:57.507Z,91.80
2022-08-21T22:08:33.537Z,92.77
2022-08-21T22:11:08.885Z,97.53
2022-08-21T22:13:55.305Z,92.43
2022-08-21T22:16:25.373Z,92.47
2022-08-21T22:18:56.484Z,99.73
2022-08-21T22:21:26.427Z,98.27
2022-08-21T22:23:57.374Z,93.60
2022-08-21T22:26:29.792Z,91.93
2022-08-21T22:29:01.441Z,99.30
2022-08-21T22:31:34.876Z,90.23
2022-08-21T22:34:06.243Z,99.47
2022-08-21T22:36:40.810Z,96.50
2022-08-21T22:39:14.876Z,95.33
2022-08-21T22:41:45.084Z,99.93
2022-08-21T22:44:21.246Z,96.13
2022-08-21T22:46:52.481Z,97.70
2022-08-21T22:49:28.147Z,92.30
2022-08-21T22:51:58.541Z,104.67
2022-08-21T22:54:35.058Z,103.07
2022-08-21T22:57:04.883Z,103.57
2022-08-21T22:59:35.078Z,94.77
2022-08-21T23:02:12.467Z,96.43
2022-08-21T23:04:48.346Z,93.10
2022-08-21T23:07:32.895Z,97.60
2022-08-21T23:10:01.204Z,99.60
2022-08-21T23:12:33.172Z,95.33
2022-08-21T23:15:04.662Z,104.50
2022-08-21T23:17:50.093Z,97.73
2022-08-21T23:20:21.523Z,102.17
2022-08-21T23:22:55.335Z,93.93
2022-08-21T23:25:32.271Z,101.23
2022-08-21T23:28:05.017Z,99.90
2022-08-21T23:30:46.771Z,97.03
2022-08-21T23:33:27.987Z,96.20
2022-08-21T23:36:21.990Z,99.03
2022-08-21T23:38:54.384Z,93.87
2022-08-21T23:41:34.131Z,99.30
2022-08-21T23:44:09.995Z,98.73
2022-08-21T23:46:47.793Z,100.33
2022-08-21T23:49:26.084Z,97.43
2022-08-21T23:52:00.499Z,101.50
2022-08-21T23:54:32.423Z,101.30
2022-08-21T23:57:08.222Z,111.50
2022-08-21T23:59:43.297Z,95.83
